sensor_id;sensor_type;location;lat;lon;timestamp;temperature;humidity
84298;DHT22;74466;51.188;3.242;2024-02-26T00:02:02;7.90;90.20
84298;DHT22;74466;51.188;3.242;2024-02-26T00:04:28;7.90;90.50
84298;DHT22;74466;51.188;3.242;2024-02-26T00:06:54;7.90;90.70
84298;DHT22;74466;51.188;3.242;2024-02-26T00:09:21;7.90;90.60
84298;DHT22;74466;51.188;3.242;2024-02-26T00:11:47;7.90;90.40
84298;DHT22;74466;51.188;3.242;2024-02-26T00:14:13;7.90;90.70
84298;DHT22;74466;51.188;3.242;2024-02-26T00:16:42;7.80;90.80
84298;DHT22;74466;51.188;3.242;2024-02-26T00:19:10;7.70;91.10
84298;DHT22;74466;51.188;3.242;2024-02-26T00:21:42;7.80;91.30
84298;DHT22;74466;51.188;3.242;2024-02-26T00:24:08;7.70;91.20
84298;DHT22;74466;51.188;3.242;2024-02-26T00:26:33;7.70;91.40
84298;DHT22;74466;51.188;3.242;2024-02-26T00:28:59;7.70;91.40
84298;DHT22;74466;51.188;3.242;2024-02-26T00:31:25;7.60;91.90
84298;DHT22;74466;51.188;3.242;2024-02-26T00:33:51;7.60;92.00
84298;DHT22;74466;51.188;3.242;2024-02-26T00:36:16;7.70;92.20
84298;DHT22;74466;51.188;3.242;2024-02-26T00:38:43;7.70;92.20
84298;DHT22;74466;51.188;3.242;2024-02-26T00:41:10;7.60;91.80
84298;DHT22;74466;51.188;3.242;2024-02-26T00:43:36;7.60;91.90
84298;DHT22;74466;51.188;3.242;2024-02-26T00:46:04;7.50;92.00
84298;DHT22;74466;51.188;3.242;2024-02-26T00:48:30;7.50;92.30
84298;DHT22;74466;51.188;3.242;2024-02-26T00:50:55;7.50;92.30
84298;DHT22;74466;51.188;3.242;2024-02-26T00:53:21;7.40;92.50
84298;DHT22;74466;51.188;3.242;2024-02-26T00:55:47;7.50;92.60
84298;DHT22;74466;51.188;3.242;2024-02-26T00:58:13;7.40;92.60
84298;DHT22;74466;51.188;3.242;2024-02-26T01:00:38;7.40;92.70
84298;DHT22;74466;51.188;3.242;2024-02-26T01:03:04;7.40;92.60
84298;DHT22;74466;51.188;3.242;2024-02-26T01:05:30;7.40;92.70
84298;DHT22;74466;51.188;3.242;2024-02-26T01:07:56;7.50;92.60
84298;DHT22;74466;51.188;3.242;2024-02-26T01:10:21;7.40;92.50
84298;DHT22;74466;51.188;3.242;2024-02-26T01:12:47;7.40;92.60
84298;DHT22;74466;51.188;3.242;2024-02-26T01:15:13;7.40;92.70
84298;DHT22;74466;51.188;3.242;2024-02-26T01:17:38;7.30;93.10
84298;DHT22;74466;51.188;3.242;2024-02-26T01:20:05;7.40;93.10
84298;DHT22;74466;51.188;3.242;2024-02-26T01:22:30;7.40;93.00
84298;DHT22;74466;51.188;3.242;2024-02-26T01:24:57;7.30;93.10
84298;DHT22;74466;51.188;3.242;2024-02-26T01:27:23;7.30;93.40
84298;DHT22;74466;51.188;3.242;2024-02-26T01:29:52;7.30;93.40
84298;DHT22;74466;51.188;3.242;2024-02-26T01:32:18;7.30;93.50
84298;DHT22;74466;51.188;3.242;2024-02-26T01:34:43;7.30;93.60
84298;DHT22;74466;51.188;3.242;2024-02-26T01:37:10;7.30;93.70
84298;DHT22;74466;51.188;3.242;2024-02-26T01:39:35;7.30;93.50
84298;DHT22;74466;51.188;3.242;2024-02-26T01:42:01;7.30;93.50
84298;DHT22;74466;51.188;3.242;2024-02-26T01:44:27;7.30;93.40
84298;DHT22;74466;51.188;3.242;2024-02-26T01:46:54;7.40;93.50
84298;DHT22;74466;51.188;3.242;2024-02-26T01:49:20;7.30;93.50
84298;DHT22;74466;51.188;3.242;2024-02-26T01:51:46;7.30;93.70
84298;DHT22;74466;51.188;3.242;2024-02-26T01:54:12;7.20;93.80
84298;DHT22;74466;51.188;3.242;2024-02-26T01:56:38;7.20;93.80
84298;DHT22;74466;51.188;3.242;2024-02-26T01:59:06;7.20;93.90
84298;DHT22;74466;51.188;3.242;2024-02-26T02:01:34;7.20;94.00
84298;DHT22;74466;51.188;3.242;2024-02-26T02:04:01;7.20;94.00
84298;DHT22;74466;51.188;3.242;2024-02-26T02:06:27;7.20;94.10
84298;DHT22;74466;51.188;3.242;2024-02-26T02:08:54;7.20;94.00
84298;DHT22;74466;51.188;3.242;2024-02-26T02:11:20;7.20;94.20
84298;DHT22;74466;51.188;3.242;2024-02-26T02:13:46;7.20;94.30
84298;DHT22;74466;51.188;3.242;2024-02-26T02:16:12;7.20;94.30
84298;DHT22;74466;51.188;3.242;2024-02-26T02:18:39;7.10;94.40
84298;DHT22;74466;51.188;3.242;2024-02-26T02:21:05;7.10;94.40
84298;DHT22;74466;51.188;3.242;2024-02-26T02:23:31;7.10;94.40
84298;DHT22;74466;51.188;3.242;2024-02-26T02:25:57;7.10;94.50
84298;DHT22;74466;51.188;3.242;2024-02-26T02:28:25;7.10;94.50
84298;DHT22;74466;51.188;3.242;2024-02-26T02:30:51;7.10;94.70
84298;DHT22;74466;51.188;3.242;2024-02-26T02:33:17;7.10;94.60
84298;DHT22;74466;51.188;3.242;2024-02-26T02:35:42;7.20;94.50
84298;DHT22;74466;51.188;3.242;2024-02-26T02:38:08;7.20;94.40
84298;DHT22;74466;51.188;3.242;2024-02-26T02:40:34;7.20;94.50
84298;DHT22;74466;51.188;3.242;2024-02-26T02:43:00;7.20;94.50
84298;DHT22;74466;51.188;3.242;2024-02-26T02:45:28;7.20;94.50
84298;DHT22;74466;51.188;3.242;2024-02-26T02:47:53;7.10;94.40
84298;DHT22;74466;51.188;3.242;2024-02-26T02:50:20;7.00;94.60
84298;DHT22;74466;51.188;3.242;2024-02-26T02:52:45;7.10;94.50
84298;DHT22;74466;51.188;3.242;2024-02-26T02:55:12;7.10;95.00
84298;DHT22;74466;51.188;3.242;2024-02-26T02:57:38;7.00;94.70
84298;DHT22;74466;51.188;3.242;2024-02-26T03:00:08;7.00;94.60
84298;DHT22;74466;51.188;3.242;2024-02-26T03:02:34;7.00;94.80
84298;DHT22;74466;51.188;3.242;2024-02-26T03:05:02;7.00;95.10
84298;DHT22;74466;51.188;3.242;2024-02-26T03:07:28;7.00;94.80
84298;DHT22;74466;51.188;3.242;2024-02-26T03:09:53;7.00;94.60
84298;DHT22;74466;51.188;3.242;2024-02-26T03:12:19;7.00;94.50
84298;DHT22;74466;51.188;3.242;2024-02-26T03:14:45;7.00;94.40
84298;DHT22;74466;51.188;3.242;2024-02-26T03:17:11;7.00;94.80
84298;DHT22;74466;51.188;3.242;2024-02-26T03:19:36;7.00;94.40
84298;DHT22;74466;51.188;3.242;2024-02-26T03:22:02;7.00;94.70
84298;DHT22;74466;51.188;3.242;2024-02-26T03:24:28;7.00;94.80
84298;DHT22;74466;51.188;3.242;2024-02-26T03:26:54;7.00;94.50
84298;DHT22;74466;51.188;3.242;2024-02-26T03:29:20;7.00;94.50
84298;DHT22;74466;51.188;3.242;2024-02-26T03:31:46;7.00;94.50
84298;DHT22;74466;51.188;3.242;2024-02-26T03:34:12;7.00;94.50
84298;DHT22;74466;51.188;3.242;2024-02-26T03:36:39;6.90;94.60
84298;DHT22;74466;51.188;3.242;2024-02-26T03:39:05;6.90;94.70
84298;DHT22;74466;51.188;3.242;2024-02-26T03:41:35;6.90;94.80
84298;DHT22;74466;51.188;3.242;2024-02-26T03:44:02;7.00;94.60
84298;DHT22;74466;51.188;3.242;2024-02-26T03:46:27;6.90;94.40
84298;DHT22;74466;51.188;3.242;2024-02-26T03:48:53;6.90;94.60
84298;DHT22;74466;51.188;3.242;2024-02-26T03:51:19;6.90;94.40
84298;DHT22;74466;51.188;3.242;2024-02-26T03:53:45;6.90;94.50
84298;DHT22;74466;51.188;3.242;2024-02-26T03:56:13;6.90;94.70
84298;DHT22;74466;51.188;3.242;2024-02-26T03:58:39;6.90;94.50
84298;DHT22;74466;51.188;3.242;2024-02-26T04:01:07;6.90;94.80
84298;DHT22;74466;51.188;3.242;2024-02-26T04:03:33;6.90;94.60
84298;DHT22;74466;51.188;3.242;2024-02-26T04:06:00;6.90;94.70
84298;DHT22;74466;51.188;3.242;2024-02-26T04:08:26;6.90;94.50
84298;DHT22;74466;51.188;3.242;2024-02-26T04:10:52;7.00;94.60
84298;DHT22;74466;51.188;3.242;2024-02-26T04:13:18;6.90;94.40
84298;DHT22;74466;51.188;3.242;2024-02-26T04:15:44;6.80;94.70
84298;DHT22;74466;51.188;3.242;2024-02-26T04:18:10;6.80;94.90
84298;DHT22;74466;51.188;3.242;2024-02-26T04:20:36;6.80;95.40
84298;DHT22;74466;51.188;3.242;2024-02-26T04:23:02;6.70;94.80
84298;DHT22;74466;51.188;3.242;2024-02-26T04:25:28;6.80;94.80
84298;DHT22;74466;51.188;3.242;2024-02-26T04:27:54;6.80;94.80
84298;DHT22;74466;51.188;3.242;2024-02-26T04:30:19;6.70;94.80
84298;DHT22;74466;51.188;3.242;2024-02-26T04:32:45;6.80;95.20
84298;DHT22;74466;51.188;3.242;2024-02-26T04:35:11;6.80;94.90
84298;DHT22;74466;51.188;3.242;2024-02-26T04:37:37;6.70;94.90
84298;DHT22;74466;51.188;3.242;2024-02-26T04:40:03;6.70;95.00
84298;DHT22;74466;51.188;3.242;2024-02-26T04:42:29;6.70;94.90
84298;DHT22;74466;51.188;3.242;2024-02-26T04:44:56;6.70;95.00
84298;DHT22;74466;51.188;3.242;2024-02-26T04:47:21;6.70;94.90
84298;DHT22;74466;51.188;3.242;2024-02-26T04:49:51;6.70;95.00
84298;DHT22;74466;51.188;3.242;2024-02-26T04:52:18;6.70;94.90
84298;DHT22;74466;51.188;3.242;2024-02-26T04:54:44;6.70;95.00
84298;DHT22;74466;51.188;3.242;2024-02-26T04:57:10;6.70;94.90
84298;DHT22;74466;51.188;3.242;2024-02-26T04:59:36;6.70;95.00
84298;DHT22;74466;51.188;3.242;2024-02-26T05:02:02;6.70;94.70
84298;DHT22;74466;51.188;3.242;2024-02-26T05:04:28;6.80;94.80
84298;DHT22;74466;51.188;3.242;2024-02-26T05:06:54;6.80;94.60
84298;DHT22;74466;51.188;3.242;2024-02-26T05:09:19;6.80;94.50
84298;DHT22;74466;51.188;3.242;2024-02-26T05:11:45;6.70;94.30
84298;DHT22;74466;51.188;3.242;2024-02-26T05:14:11;6.70;94.70
84298;DHT22;74466;51.188;3.242;2024-02-26T05:16:37;6.70;94.70
84298;DHT22;74466;51.188;3.242;2024-02-26T05:19:02;6.70;94.60
84298;DHT22;74466;51.188;3.242;2024-02-26T05:21:28;6.70;94.80
84298;DHT22;74466;51.188;3.242;2024-02-26T05:23:54;6.70;94.90
84298;DHT22;74466;51.188;3.242;2024-02-26T05:26:21;6.60;94.80
84298;DHT22;74466;51.188;3.242;2024-02-26T05:28:47;6.60;94.80
84298;DHT22;74466;51.188;3.242;2024-02-26T05:31:14;6.60;94.90
84298;DHT22;74466;51.188;3.242;2024-02-26T05:33:40;6.60;94.90
84298;DHT22;74466;51.188;3.242;2024-02-26T05:36:06;6.60;94.90
84298;DHT22;74466;51.188;3.242;2024-02-26T05:38:32;6.70;95.10
84298;DHT22;74466;51.188;3.242;2024-02-26T05:40:58;6.70;94.80
84298;DHT22;74466;51.188;3.242;2024-02-26T05:43:25;6.70;94.70
84298;DHT22;74466;51.188;3.242;2024-02-26T05:45:51;6.70;94.60
84298;DHT22;74466;51.188;3.242;2024-02-26T05:48:17;6.70;94.60
84298;DHT22;74466;51.188;3.242;2024-02-26T05:50:44;6.60;94.60
84298;DHT22;74466;51.188;3.242;2024-02-26T05:53:10;6.60;94.60
84298;DHT22;74466;51.188;3.242;2024-02-26T05:55:36;6.60;94.60
84298;DHT22;74466;51.188;3.242;2024-02-26T05:58:02;6.60;94.80
84298;DHT22;74466;51.188;3.242;2024-02-26T06:00:28;6.60;94.80
84298;DHT22;74466;51.188;3.242;2024-02-26T06:02:54;6.60;94.60
84298;DHT22;74466;51.188;3.242;2024-02-26T06:05:20;6.60;94.80
84298;DHT22;74466;51.188;3.242;2024-02-26T06:07:46;6.50;94.70
84298;DHT22;74466;51.188;3.242;2024-02-26T06:10:11;6.60;94.80
84298;DHT22;74466;51.188;3.242;2024-02-26T06:12:39;6.60;94.80
84298;DHT22;74466;51.188;3.242;2024-02-26T06:15:06;6.60;94.80
84298;DHT22;74466;51.188;3.242;2024-02-26T06:17:31;6.60;94.80
84298;DHT22;74466;51.188;3.242;2024-02-26T06:19:57;6.60;94.40
84298;DHT22;74466;51.188;3.242;2024-02-26T06:22:25;6.60;94.50
84298;DHT22;74466;51.188;3.242;2024-02-26T06:24:50;6.60;94.40
84298;DHT22;74466;51.188;3.242;2024-02-26T06:27:16;6.70;94.60
84298;DHT22;74466;51.188;3.242;2024-02-26T06:29:42;6.60;94.50
84298;DHT22;74466;51.188;3.242;2024-02-26T06:32:07;6.60;94.30
84298;DHT22;74466;51.188;3.242;2024-02-26T06:34:33;6.60;94.50
84298;DHT22;74466;51.188;3.242;2024-02-26T06:36:59;6.50;94.60
84298;DHT22;74466;51.188;3.242;2024-02-26T06:39:25;6.60;94.50
84298;DHT22;74466;51.188;3.242;2024-02-26T06:41:50;6.50;94.30
84298;DHT22;74466;51.188;3.242;2024-02-26T06:44:20;6.50;94.50
84298;DHT22;74466;51.188;3.242;2024-02-26T06:46:45;6.50;94.50
84298;DHT22;74466;51.188;3.242;2024-02-26T06:49:11;6.50;94.60
84298;DHT22;74466;51.188;3.242;2024-02-26T06:51:37;6.50;94.30
84298;DHT22;74466;51.188;3.242;2024-02-26T06:54:02;6.50;94.30
84298;DHT22;74466;51.188;3.242;2024-02-26T06:56:28;6.50;94.20
84298;DHT22;74466;51.188;3.242;2024-02-26T06:58:55;6.50;94.20
84298;DHT22;74466;51.188;3.242;2024-02-26T07:01:20;6.50;93.70
84298;DHT22;74466;51.188;3.242;2024-02-26T07:03:46;6.60;94.00
84298;DHT22;74466;51.188;3.242;2024-02-26T07:06:11;6.60;93.90
84298;DHT22;74466;51.188;3.242;2024-02-26T07:08:39;6.60;94.10
84298;DHT22;74466;51.188;3.242;2024-02-26T07:11:07;6.60;94.10
84298;DHT22;74466;51.188;3.242;2024-02-26T07:13:34;6.60;94.10
84298;DHT22;74466;51.188;3.242;2024-02-26T07:16:00;6.60;93.90
84298;DHT22;74466;51.188;3.242;2024-02-26T07:18:26;6.70;93.30
84298;DHT22;74466;51.188;3.242;2024-02-26T07:20:52;6.70;93.50
84298;DHT22;74466;51.188;3.242;2024-02-26T07:23:17;6.70;93.40
84298;DHT22;74466;51.188;3.242;2024-02-26T07:25:44;6.60;93.30
84298;DHT22;74466;51.188;3.242;2024-02-26T07:28:10;6.60;93.20
84298;DHT22;74466;51.188;3.242;2024-02-26T07:30:36;6.60;93.40
84298;DHT22;74466;51.188;3.242;2024-02-26T07:33:02;6.60;93.40
84298;DHT22;74466;51.188;3.242;2024-02-26T07:35:27;6.60;93.20
84298;DHT22;74466;51.188;3.242;2024-02-26T07:37:53;6.60;93.20
84298;DHT22;74466;51.188;3.242;2024-02-26T07:40:19;6.60;93.00
84298;DHT22;74466;51.188;3.242;2024-02-26T07:42:45;6.50;93.20
84298;DHT22;74466;51.188;3.242;2024-02-26T07:45:10;6.50;93.40
84298;DHT22;74466;51.188;3.242;2024-02-26T07:47:36;6.50;93.50
84298;DHT22;74466;51.188;3.242;2024-02-26T07:50:07;6.60;93.60
84298;DHT22;74466;51.188;3.242;2024-02-26T07:52:32;6.50;93.30
84298;DHT22;74466;51.188;3.242;2024-02-26T07:54:59;6.50;93.10
84298;DHT22;74466;51.188;3.242;2024-02-26T07:57:24;6.50;93.20
84298;DHT22;74466;51.188;3.242;2024-02-26T07:59:50;6.40;93.20
84298;DHT22;74466;51.188;3.242;2024-02-26T08:02:16;6.40;93.40
84298;DHT22;74466;51.188;3.242;2024-02-26T08:04:43;6.40;93.90
84298;DHT22;74466;51.188;3.242;2024-02-26T08:07:08;6.40;93.40
84298;DHT22;74466;51.188;3.242;2024-02-26T08:09:34;6.40;93.40
84298;DHT22;74466;51.188;3.242;2024-02-26T08:12:00;6.40;93.50
84298;DHT22;74466;51.188;3.242;2024-02-26T08:14:25;6.40;93.80
84298;DHT22;74466;51.188;3.242;2024-02-26T08:16:51;6.30;93.80
84298;DHT22;74466;51.188;3.242;2024-02-26T08:19:17;6.40;93.70
84298;DHT22;74466;51.188;3.242;2024-02-26T08:21:43;6.40;93.50
84298;DHT22;74466;51.188;3.242;2024-02-26T08:24:09;6.40;93.70
84298;DHT22;74466;51.188;3.242;2024-02-26T08:26:35;6.30;93.70
84298;DHT22;74466;51.188;3.242;2024-02-26T08:29:01;6.40;93.70
84298;DHT22;74466;51.188;3.242;2024-02-26T08:31:26;6.30;93.50
84298;DHT22;74466;51.188;3.242;2024-02-26T08:33:53;6.30;93.80
84298;DHT22;74466;51.188;3.242;2024-02-26T08:36:19;6.30;93.80
84298;DHT22;74466;51.188;3.242;2024-02-26T08:38:44;6.30;93.70
84298;DHT22;74466;51.188;3.242;2024-02-26T08:41:10;6.30;93.80
84298;DHT22;74466;51.188;3.242;2024-02-26T08:43:36;6.30;94.00
84298;DHT22;74466;51.188;3.242;2024-02-26T08:46:02;6.30;93.80
84298;DHT22;74466;51.188;3.242;2024-02-26T08:48:28;6.30;94.00
84298;DHT22;74466;51.188;3.242;2024-02-26T08:50:54;6.30;93.80
84298;DHT22;74466;51.188;3.242;2024-02-26T08:53:20;6.30;93.70
84298;DHT22;74466;51.188;3.242;2024-02-26T08:55:46;6.30;93.80
84298;DHT22;74466;51.188;3.242;2024-02-26T08:58:13;6.20;94.00
84298;DHT22;74466;51.188;3.242;2024-02-26T09:00:38;6.20;93.90
84298;DHT22;74466;51.188;3.242;2024-02-26T09:03:04;6.20;94.20
84298;DHT22;74466;51.188;3.242;2024-02-26T09:05:30;6.20;94.10
84298;DHT22;74466;51.188;3.242;2024-02-26T09:07:55;6.20;94.20
84298;DHT22;74466;51.188;3.242;2024-02-26T09:10:21;6.20;94.20
84298;DHT22;74466;51.188;3.242;2024-02-26T09:12:47;6.20;94.40
84298;DHT22;74466;51.188;3.242;2024-02-26T09:15:13;6.30;94.20
84298;DHT22;74466;51.188;3.242;2024-02-26T09:17:39;6.30;94.50
84298;DHT22;74466;51.188;3.242;2024-02-26T09:20:05;6.30;94.20
84298;DHT22;74466;51.188;3.242;2024-02-26T09:22:31;6.40;94.30
84298;DHT22;74466;51.188;3.242;2024-02-26T09:24:58;6.30;94.20
84298;DHT22;74466;51.188;3.242;2024-02-26T09:27:23;6.30;93.80
84298;DHT22;74466;51.188;3.242;2024-02-26T09:29:49;6.30;94.20
84298;DHT22;74466;51.188;3.242;2024-02-26T09:32:15;6.30;94.30
84298;DHT22;74466;51.188;3.242;2024-02-26T09:34:41;6.30;94.50
84298;DHT22;74466;51.188;3.242;2024-02-26T09:37:07;6.30;94.00
84298;DHT22;74466;51.188;3.242;2024-02-26T09:39:33;6.20;94.40
84298;DHT22;74466;51.188;3.242;2024-02-26T09:42:00;6.30;94.30
84298;DHT22;74466;51.188;3.242;2024-02-26T09:44:29;6.30;94.80
84298;DHT22;74466;51.188;3.242;2024-02-26T09:46:56;6.30;94.70
84298;DHT22;74466;51.188;3.242;2024-02-26T09:49:23;6.30;94.60
84298;DHT22;74466;51.188;3.242;2024-02-26T09:51:50;6.40;94.40
84298;DHT22;74466;51.188;3.242;2024-02-26T09:54:17;6.30;94.50
84298;DHT22;74466;51.188;3.242;2024-02-26T09:56:43;6.30;94.60
84298;DHT22;74466;51.188;3.242;2024-02-26T09:59:16;6.30;94.70
84298;DHT22;74466;51.188;3.242;2024-02-26T10:01:44;6.30;94.70
84298;DHT22;74466;51.188;3.242;2024-02-26T10:04:11;6.30;94.40
84298;DHT22;74466;51.188;3.242;2024-02-26T10:06:38;6.30;94.30
84298;DHT22;74466;51.188;3.242;2024-02-26T10:09:05;6.40;94.60
84298;DHT22;74466;51.188;3.242;2024-02-26T10:11:35;6.30;94.30
84298;DHT22;74466;51.188;3.242;2024-02-26T10:14:01;6.40;94.60
84298;DHT22;74466;51.188;3.242;2024-02-26T10:16:27;6.30;94.70
84298;DHT22;74466;51.188;3.242;2024-02-26T10:18:54;6.40;94.60
84298;DHT22;74466;51.188;3.242;2024-02-26T10:21:20;6.40;94.30
84298;DHT22;74466;51.188;3.242;2024-02-26T10:23:47;6.40;94.50
84298;DHT22;74466;51.188;3.242;2024-02-26T10:26:16;6.30;94.30
84298;DHT22;74466;51.188;3.242;2024-02-26T10:28:44;6.30;94.70
84298;DHT22;74466;51.188;3.242;2024-02-26T10:31:10;6.40;94.30
84298;DHT22;74466;51.188;3.242;2024-02-26T10:33:37;6.40;94.70
84298;DHT22;74466;51.188;3.242;2024-02-26T10:36:07;6.40;94.50
84298;DHT22;74466;51.188;3.242;2024-02-26T10:38:37;6.40;94.30
84298;DHT22;74466;51.188;3.242;2024-02-26T10:41:04;6.40;94.30
84298;DHT22;74466;51.188;3.242;2024-02-26T10:43:29;6.40;94.10
84298;DHT22;74466;51.188;3.242;2024-02-26T10:45:56;6.40;94.30
84298;DHT22;74466;51.188;3.242;2024-02-26T10:48:22;6.40;94.30
84298;DHT22;74466;51.188;3.242;2024-02-26T10:50:48;6.40;94.30
84298;DHT22;74466;51.188;3.242;2024-02-26T10:53:17;6.40;94.60
84298;DHT22;74466;51.188;3.242;2024-02-26T10:55:54;6.40;94.50
84298;DHT22;74466;51.188;3.242;2024-02-26T10:58:22;6.50;94.30
84298;DHT22;74466;51.188;3.242;2024-02-26T11:00:50;6.50;94.70
84298;DHT22;74466;51.188;3.242;2024-02-26T11:03:16;6.40;94.10
84298;DHT22;74466;51.188;3.242;2024-02-26T11:05:49;6.40;94.30
84298;DHT22;74466;51.188;3.242;2024-02-26T11:08:17;6.50;94.10
84298;DHT22;74466;51.188;3.242;2024-02-26T11:10:43;6.50;94.50
84298;DHT22;74466;51.188;3.242;2024-02-26T11:13:14;6.50;94.80
84298;DHT22;74466;51.188;3.242;2024-02-26T11:15:40;6.50;94.60
84298;DHT22;74466;51.188;3.242;2024-02-26T11:18:07;6.50;94.50
84298;DHT22;74466;51.188;3.242;2024-02-26T11:20:33;6.60;94.00
84298;DHT22;74466;51.188;3.242;2024-02-26T11:23:00;6.60;94.60
84298;DHT22;74466;51.188;3.242;2024-02-26T11:25:26;6.60;94.10
84298;DHT22;74466;51.188;3.242;2024-02-26T11:27:58;6.60;94.40
84298;DHT22;74466;51.188;3.242;2024-02-26T11:30:31;6.60;94.20
84298;DHT22;74466;51.188;3.242;2024-02-26T11:32:58;6.70;94.30
84298;DHT22;74466;51.188;3.242;2024-02-26T11:35:24;6.60;94.30
84298;DHT22;74466;51.188;3.242;2024-02-26T11:37:57;6.60;94.30
84298;DHT22;74466;51.188;3.242;2024-02-26T11:40:26;6.70;94.00
84298;DHT22;74466;51.188;3.242;2024-02-26T11:42:53;6.70;94.20
84298;DHT22;74466;51.188;3.242;2024-02-26T11:48:12;6.70;94.10
84298;DHT22;74466;51.188;3.242;2024-02-26T11:50:42;6.70;94.10
84298;DHT22;74466;51.188;3.242;2024-02-26T11:56:32;6.70;94.30
84298;DHT22;74466;51.188;3.242;2024-02-26T12:01:50;6.70;94.30
84298;DHT22;74466;51.188;3.242;2024-02-26T12:04:23;6.70;94.20
84298;DHT22;74466;51.188;3.242;2024-02-26T12:06:54;6.70;93.90
84298;DHT22;74466;51.188;3.242;2024-02-26T12:09:40;6.80;94.40
84298;DHT22;74466;51.188;3.242;2024-02-26T12:12:18;6.90;94.00
84298;DHT22;74466;51.188;3.242;2024-02-26T12:14:52;6.80;93.70
84298;DHT22;74466;51.188;3.242;2024-02-26T12:17:22;6.80;94.40
84298;DHT22;74466;51.188;3.242;2024-02-26T12:19:48;6.80;94.20
84298;DHT22;74466;51.188;3.242;2024-02-26T12:22:15;6.80;94.10
84298;DHT22;74466;51.188;3.242;2024-02-26T12:24:41;6.80;93.90
84298;DHT22;74466;51.188;3.242;2024-02-26T12:27:07;6.80;94.10
84298;DHT22;74466;51.188;3.242;2024-02-26T12:29:32;6.80;93.90
84298;DHT22;74466;51.188;3.242;2024-02-26T12:31:58;6.80;94.30
84298;DHT22;74466;51.188;3.242;2024-02-26T12:34:24;6.80;93.80
84298;DHT22;74466;51.188;3.242;2024-02-26T12:36:50;6.80;94.20
84298;DHT22;74466;51.188;3.242;2024-02-26T12:39:17;6.80;93.80
84298;DHT22;74466;51.188;3.242;2024-02-26T12:41:43;6.80;94.10
84298;DHT22;74466;51.188;3.242;2024-02-26T12:44:17;6.80;93.60
84298;DHT22;74466;51.188;3.242;2024-02-26T12:46:43;6.80;93.70
84298;DHT22;74466;51.188;3.242;2024-02-26T12:49:15;6.80;94.10
84298;DHT22;74466;51.188;3.242;2024-02-26T12:51:41;6.80;94.30
84298;DHT22;74466;51.188;3.242;2024-02-26T12:54:07;6.80;93.90
84298;DHT22;74466;51.188;3.242;2024-02-26T12:56:35;6.80;93.80
84298;DHT22;74466;51.188;3.242;2024-02-26T12:59:01;6.80;94.30
84298;DHT22;74466;51.188;3.242;2024-02-26T13:01:28;6.90;94.20
84298;DHT22;74466;51.188;3.242;2024-02-26T13:03:55;6.90;94.50
84298;DHT22;74466;51.188;3.242;2024-02-26T13:06:21;7.00;94.00
84298;DHT22;74466;51.188;3.242;2024-02-26T13:08:49;7.00;93.70
84298;DHT22;74466;51.188;3.242;2024-02-26T13:11:15;7.00;93.70
84298;DHT22;74466;51.188;3.242;2024-02-26T13:13:41;7.00;93.80
84298;DHT22;74466;51.188;3.242;2024-02-26T13:16:10;7.00;93.80
84298;DHT22;74466;51.188;3.242;2024-02-26T13:18:35;7.10;93.70
84298;DHT22;74466;51.188;3.242;2024-02-26T13:21:14;7.00;93.40
84298;DHT22;74466;51.188;3.242;2024-02-26T13:23:41;7.10;93.20
84298;DHT22;74466;51.188;3.242;2024-02-26T13:26:08;7.00;93.20
84298;DHT22;74466;51.188;3.242;2024-02-26T13:28:37;7.10;93.60
84298;DHT22;74466;51.188;3.242;2024-02-26T13:31:03;7.00;93.10
84298;DHT22;74466;51.188;3.242;2024-02-26T13:33:31;7.00;93.10
84298;DHT22;74466;51.188;3.242;2024-02-26T13:35:58;7.10;93.30
84298;DHT22;74466;51.188;3.242;2024-02-26T13:38:26;7.00;93.30
84298;DHT22;74466;51.188;3.242;2024-02-26T13:40:52;7.00;93.10
84298;DHT22;74466;51.188;3.242;2024-02-26T13:43:18;7.10;93.60
84298;DHT22;74466;51.188;3.242;2024-02-26T13:45:45;7.10;93.40
84298;DHT22;74466;51.188;3.242;2024-02-26T13:48:12;7.10;93.20
84298;DHT22;74466;51.188;3.242;2024-02-26T13:50:40;7.10;93.20
84298;DHT22;74466;51.188;3.242;2024-02-26T13:53:08;7.10;92.90
84298;DHT22;74466;51.188;3.242;2024-02-26T13:55:34;7.10;92.90
84298;DHT22;74466;51.188;3.242;2024-02-26T13:58:00;7.10;93.30
84298;DHT22;74466;51.188;3.242;2024-02-26T14:00:31;7.20;93.30
84298;DHT22;74466;51.188;3.242;2024-02-26T14:03:00;7.20;93.00
84298;DHT22;74466;51.188;3.242;2024-02-26T14:05:26;7.20;93.20
84298;DHT22;74466;51.188;3.242;2024-02-26T14:07:52;7.20;93.10
84298;DHT22;74466;51.188;3.242;2024-02-26T14:10:19;7.20;92.90
84298;DHT22;74466;51.188;3.242;2024-02-26T14:12:45;7.10;92.80
84298;DHT22;74466;51.188;3.242;2024-02-26T14:15:10;7.10;92.80
84298;DHT22;74466;51.188;3.242;2024-02-26T14:17:37;7.10;93.30
84298;DHT22;74466;51.188;3.242;2024-02-26T14:20:03;7.10;93.30
84298;DHT22;74466;51.188;3.242;2024-02-26T14:22:29;7.10;93.40
84298;DHT22;74466;51.188;3.242;2024-02-26T14:24:56;7.00;93.20
84298;DHT22;74466;51.188;3.242;2024-02-26T14:27:22;7.10;93.30
84298;DHT22;74466;51.188;3.242;2024-02-26T14:29:48;7.10;93.50
84298;DHT22;74466;51.188;3.242;2024-02-26T14:32:14;7.20;93.70
84298;DHT22;74466;51.188;3.242;2024-02-26T14:34:40;7.20;93.10
84298;DHT22;74466;51.188;3.242;2024-02-26T14:37:06;7.20;93.10
84298;DHT22;74466;51.188;3.242;2024-02-26T14:39:32;7.20;93.10
84298;DHT22;74466;51.188;3.242;2024-02-26T14:41:58;7.10;93.20
84298;DHT22;74466;51.188;3.242;2024-02-26T14:44:25;7.10;93.60
84298;DHT22;74466;51.188;3.242;2024-02-26T14:46:51;7.20;93.70
84298;DHT22;74466;51.188;3.242;2024-02-26T14:49:17;7.20;93.40
84298;DHT22;74466;51.188;3.242;2024-02-26T14:51:43;7.20;93.40
84298;DHT22;74466;51.188;3.242;2024-02-26T14:54:13;7.30;93.40
84298;DHT22;74466;51.188;3.242;2024-02-26T14:56:39;7.30;93.40
84298;DHT22;74466;51.188;3.242;2024-02-26T14:59:06;7.30;93.40
84298;DHT22;74466;51.188;3.242;2024-02-26T15:01:31;7.30;93.00
84298;DHT22;74466;51.188;3.242;2024-02-26T15:03:57;7.30;93.20
84298;DHT22;74466;51.188;3.242;2024-02-26T15:06:23;7.30;93.10
84298;DHT22;74466;51.188;3.242;2024-02-26T15:08:49;7.30;93.60
84298;DHT22;74466;51.188;3.242;2024-02-26T15:11:15;7.30;93.30
84298;DHT22;74466;51.188;3.242;2024-02-26T15:13:41;7.40;93.00
84298;DHT22;74466;51.188;3.242;2024-02-26T15:16:08;7.30;93.10
84298;DHT22;74466;51.188;3.242;2024-02-26T15:18:36;7.30;93.60
84298;DHT22;74466;51.188;3.242;2024-02-26T15:21:02;7.40;93.50
84298;DHT22;74466;51.188;3.242;2024-02-26T15:23:28;7.40;93.20
84298;DHT22;74466;51.188;3.242;2024-02-26T15:25:55;7.50;93.60
84298;DHT22;74466;51.188;3.242;2024-02-26T15:28:21;7.50;92.70
84298;DHT22;74466;51.188;3.242;2024-02-26T15:30:46;7.50;92.90
84298;DHT22;74466;51.188;3.242;2024-02-26T15:33:13;7.50;93.10
84298;DHT22;74466;51.188;3.242;2024-02-26T15:35:40;7.60;92.80
84298;DHT22;74466;51.188;3.242;2024-02-26T15:38:07;7.50;92.40
84298;DHT22;74466;51.188;3.242;2024-02-26T15:40:33;7.50;92.90
84298;DHT22;74466;51.188;3.242;2024-02-26T15:42:59;7.50;92.40
84298;DHT22;74466;51.188;3.242;2024-02-26T15:45:24;7.60;92.80
84298;DHT22;74466;51.188;3.242;2024-02-26T15:47:51;7.70;92.80
84298;DHT22;74466;51.188;3.242;2024-02-26T15:50:17;7.60;92.50